Time;durP1;ratioP1;P1;durP2;ratioP2;P2;SDS_P1;SDS_P2;PMS_P1;PMS_P2;Temp;Humidity;BMP_temperature;BMP_pressure;BME280_temperature;BME280_humidity;BME280_pressure;Samples;Min_cycle;Max_cycle;Signal;HPM_P1;HPM_P2
2022/01/02 00:01:10;;;;;;;24.13;15.40;;;10.60;99.90;;;;;;5001038;28;20453;-70
2022/01/02 00:03:41;;;;;;;16.70;15.20;;;10.50;99.90;;;;;;4998540;28;20473;-71
2022/01/02 00:06:10;;;;;;;18.00;15.00;;;10.60;99.90;;;;;;4996201;28;20492;-69
2022/01/02 00:08:43;;;;;;;18.37;15.37;;;10.60;99.90;;;;;;5001589;28;20464;-70
2022/01/02 00:11:12;;;;;;;27.03;16.40;;;10.60;99.90;;;;;;4994109;28;20929;-69
2022/01/02 00:13:46;;;;;;;17.70;16.07;;;10.60;99.90;;;;;;4997608;28;20588;-72
2022/01/02 00:16:16;;;;;;;19.53;16.10;;;10.80;99.90;;;;;;5006907;28;20461;-69
2022/01/02 00:18:50;;;;;;;19.73;16.00;;;10.80;99.90;;;;;;4995761;28;20466;-71
2022/01/02 00:21:21;;;;;;;20.00;15.33;;;10.80;99.90;;;;;;4997378;28;20806;-69
2022/01/02 00:23:58;;;;;;;17.93;16.13;;;10.90;99.90;;;;;;4997337;28;20465;-70
2022/01/02 00:26:34;;;;;;;15.97;14.63;;;11.00;99.90;;;;;;4991702;28;20501;-70
2022/01/02 00:29:02;;;;;;;18.50;16.50;;;11.10;99.90;;;;;;4999027;28;20475;-71
2022/01/02 00:31:30;;;;;;;18.33;16.60;;;11.10;99.90;;;;;;4999722;28;21051;-69
2022/01/02 00:33:58;;;;;;;17.03;15.60;;;11.00;99.90;;;;;;4995636;28;20465;-69
2022/01/02 00:36:27;;;;;;;20.17;16.50;;;11.00;99.90;;;;;;4994460;28;21028;-69
2022/01/02 00:38:54;;;;;;;17.07;15.50;;;11.10;99.90;;;;;;4997638;28;20466;-72
2022/01/02 00:41:26;;;;;;;15.70;14.50;;;11.10;99.90;;;;;;5001334;28;20560;-72
2022/01/02 00:43:59;;;;;;;22.00;16.20;;;11.10;99.90;;;;;;4997443;28;20838;-70
2022/01/02 00:46:28;;;;;;;16.20;14.80;;;11.10;99.90;;;;;;4993848;28;20493;-69
2022/01/02 00:49:02;;;;;;;17.27;15.47;;;11.00;99.90;;;;;;4995008;28;20463;-72
2022/01/02 00:51:42;;;;;;;15.97;14.77;;;11.00;99.90;;;;;;4995146;28;20509;-70
2022/01/02 00:54:14;;;;;;;15.73;14.33;;;11.00;99.90;;;;;;4986830;28;20486;-71
2022/01/02 00:56:45;;;;;;;15.63;14.57;;;11.20;99.90;;;;;;4998341;28;20549;-69
2022/01/02 00:59:25;;;;;;;20.83;15.03;;;11.20;99.90;;;;;;4997912;28;20979;-69
2022/01/02 01:01:57;;;;;;;14.93;13.90;;;11.40;99.90;;;;;;4997296;28;20473;-70
2022/01/02 01:04:26;;;;;;;14.50;13.50;;;11.50;99.90;;;;;;4993360;28;20468;-70
2022/01/02 01:06:58;;;;;;;14.33;13.13;;;11.60;99.90;;;;;;4994036;28;20481;-68
2022/01/02 01:09:29;;;;;;;14.37;13.27;;;11.80;99.90;;;;;;4997348;28;20466;-70
2022/01/02 01:11:58;;;;;;;14.30;13.20;;;11.80;99.90;;;;;;4999011;28;21011;-72
2022/01/02 01:14:25;;;;;;;16.60;14.90;;;11.80;99.90;;;;;;4997722;28;20547;-73
2022/01/02 01:16:53;;;;;;;16.03;14.50;;;11.80;99.90;;;;;;4994210;28;20489;-69
2022/01/02 01:19:20;;;;;;;13.33;12.33;;;11.90;99.90;;;;;;4998559;28;20572;-72
2022/01/02 01:21:48;;;;;;;14.40;13.30;;;12.00;99.90;;;;;;4989242;28;20514;-71
2022/01/02 01:24:16;;;;;;;13.63;12.63;;;12.00;99.90;;;;;;4986705;28;20473;-70
2022/01/02 01:26:46;;;;;;;14.17;13.17;;;12.10;99.90;;;;;;4997958;28;20472;-70
2022/01/02 01:29:13;;;;;;;14.20;12.90;;;12.10;99.90;;;;;;4998255;28;20466;-72
2022/01/02 01:31:40;;;;;;;13.60;12.80;;;12.10;99.90;;;;;;4996010;28;20494;-71
2022/01/02 01:34:07;;;;;;;14.20;13.00;;;12.10;99.90;;;;;;4998226;28;20970;-74
2022/01/02 01:36:34;;;;;;;14.00;13.00;;;12.10;99.90;;;;;;4993174;28;20470;-70
2022/01/02 01:39:01;;;;;;;14.33;13.23;;;12.10;99.90;;;;;;4999003;28;20546;-70
2022/01/02 01:41:33;;;;;;;13.83;12.93;;;12.20;99.90;;;;;;4998006;28;20462;-69
2022/01/02 01:44:10;;;;;;;14.87;13.37;;;12.20;99.90;;;;;;4999680;28;20573;-69
2022/01/02 01:46:38;;;;;;;14.50;13.43;;;12.30;99.90;;;;;;4996505;28;20539;-71
2022/01/02 01:49:15;;;;;;;15.10;14.00;;;12.30;99.90;;;;;;4993850;28;20472;-70
2022/01/02 01:51:42;;;;;;;16.30;14.90;;;12.30;99.90;;;;;;4995812;28;20494;-70
2022/01/02 01:54:09;;;;;;;14.80;13.90;;;12.30;99.90;;;;;;4995118;28;20491;-71
2022/01/02 01:56:39;;;;;;;14.93;14.13;;;12.20;99.90;;;;;;4999627;28;20504;-70
2022/01/02 01:59:07;;;;;;;14.80;13.50;;;12.10;99.90;;;;;;4995890;28;20473;-73
2022/01/02 02:01:34;;;;;;;14.30;13.40;;;12.10;99.90;;;;;;4994069;28;20972;-73
2022/01/02 02:04:01;;;;;;;14.97;13.77;;;12.10;99.90;;;;;;4998259;28;20949;-70
2022/01/02 02:06:29;;;;;;;14.43;13.20;;;12.20;99.90;;;;;;4994152;28;21198;-70
2022/01/02 02:08:59;;;;;;;14.50;13.50;;;12.30;99.90;;;;;;4995999;28;20462;-73
2022/01/02 02:11:27;;;;;;;14.23;13.07;;;12.30;99.90;;;;;;5002382;28;20485;-70
2022/01/02 02:13:56;;;;;;;15.20;14.10;;;12.40;99.90;;;;;;4996803;28;20465;-72
2022/01/02 02:16:24;;;;;;;14.20;13.10;;;12.30;99.90;;;;;;4991560;28;20477;-70
2022/01/02 02:18:51;;;;;;;14.67;13.23;;;12.30;99.90;;;;;;4990681;28;20473;-70
2022/01/02 02:21:28;;;;;;;14.97;13.70;;;12.20;99.90;;;;;;4997388;28;20493;-71
2022/01/02 02:23:55;;;;;;;15.20;14.17;;;12.20;99.90;;;;;;4997579;28;20473;-70
2022/01/02 02:26:22;;;;;;;15.07;13.73;;;12.20;99.90;;;;;;4996236;28;20483;-73
2022/01/02 02:28:48;;;;;;;15.63;14.10;;;12.20;99.90;;;;;;4992053;28;20466;-69
2022/01/02 02:31:15;;;;;;;15.30;13.90;;;12.20;99.90;;;;;;4994272;28;20505;-71
2022/01/02 02:33:42;;;;;;;14.43;13.40;;;12.20;99.90;;;;;;4992012;28;20466;-72
2022/01/02 02:36:09;;;;;;;15.37;14.27;;;12.20;99.90;;;;;;4998447;28;20489;-70
2022/01/02 02:38:39;;;;;;;15.73;14.43;;;12.20;99.90;;;;;;4994925;28;20502;-70
2022/01/02 02:41:07;;;;;;;15.83;14.37;;;12.20;99.90;;;;;;4997056;28;20469;-71
2022/01/02 02:43:40;;;;;;;15.30;14.30;;;12.20;99.90;;;;;;4997564;28;20470;-70
2022/01/02 02:49:00;;;;;;;16.70;14.83;;;12.10;99.90;;;;;;4994064;28;20465;-69
2022/01/02 02:51:33;;;;;;;16.17;14.67;;;12.10;99.90;;;;;;4996322;28;20539;-72
2022/01/02 02:54:02;;;;;;;15.90;14.50;;;12.00;99.90;;;;;;5000232;28;20485;-69
2022/01/02 02:56:40;;;;;;;15.50;14.30;;;12.00;99.90;;;;;;4997370;28;20914;-70
2022/01/02 02:59:08;;;;;;;17.17;15.43;;;12.10;99.90;;;;;;4999369;28;20473;-71
2022/01/02 03:01:34;;;;;;;15.50;14.00;;;12.10;99.90;;;;;;4999701;28;20470;-74
2022/01/02 03:04:01;;;;;;;14.37;13.07;;;12.20;99.90;;;;;;4994498;28;20474;-70
2022/01/02 03:06:28;;;;;;;18.10;15.37;;;12.20;99.90;;;;;;5004220;28;20477;-73
2022/01/02 03:08:59;;;;;;;16.50;14.47;;;12.20;99.90;;;;;;5000377;28;20476;-71
2022/01/02 03:11:28;;;;;;;15.83;14.17;;;12.10;99.90;;;;;;4996230;28;20490;-69
2022/01/02 03:13:55;;;;;;;17.93;14.87;;;12.20;99.90;;;;;;4998733;28;20506;-72
2022/01/02 03:16:22;;;;;;;28.07;15.33;;;12.10;99.90;;;;;;5003548;28;20465;-70
2022/01/02 03:18:50;;;;;;;20.13;13.40;;;12.10;99.90;;;;;;5005739;28;20465;-69
2022/01/02 03:21:17;;;;;;;16.23;14.70;;;12.20;99.90;;;;;;4993293;28;20466;-73
2022/01/02 03:23:44;;;;;;;15.73;14.30;;;12.20;99.90;;;;;;4994882;28;20467;-72
2022/01/02 03:26:11;;;;;;;15.63;14.53;;;12.10;99.90;;;;;;5002295;28;20560;-70
2022/01/02 03:28:39;;;;;;;27.07;14.23;;;12.10;99.90;;;;;;4994200;28;20896;-72
2022/01/02 03:31:06;;;;;;;18.27;14.30;;;12.10;99.90;;;;;;5004686;28;20493;-72
2022/01/02 03:33:33;;;;;;;16.60;15.00;;;12.10;99.90;;;;;;4998939;28;20506;-72
2022/01/02 03:36:00;;;;;;;15.83;14.40;;;12.10;99.90;;;;;;4998180;28;20470;-70
2022/01/02 03:38:27;;;;;;;16.43;14.50;;;12.10;99.90;;;;;;4994933;28;20476;-70
2022/01/02 03:40:54;;;;;;;16.37;14.97;;;12.10;99.90;;;;;;4994249;28;20474;-70
2022/01/02 03:43:21;;;;;;;16.93;15.53;;;12.00;99.90;;;;;;5001908;28;20477;-69
2022/01/02 03:45:49;;;;;;;17.60;15.33;;;12.00;99.90;;;;;;5003994;28;20481;-73
2022/01/02 03:48:16;;;;;;;19.70;15.03;;;11.90;99.90;;;;;;4997545;28;20472;-71
2022/01/02 03:50:43;;;;;;;26.10;15.53;;;11.90;99.90;;;;;;4998361;28;20839;-70
2022/01/02 03:53:10;;;;;;;17.40;15.70;;;12.00;99.90;;;;;;4998178;28;21316;-70
2022/01/02 03:55:39;;;;;;;27.63;15.70;;;12.00;99.90;;;;;;5000331;28;20467;-69
2022/01/02 03:58:06;;;;;;;24.97;15.00;;;12.00;99.90;;;;;;5006512;28;20458;-70
2022/01/02 04:00:33;;;;;;;17.17;15.60;;;12.00;99.90;;;;;;5006867;28;20465;-73
2022/01/02 04:03:01;;;;;;;22.97;15.70;;;12.00;99.90;;;;;;4997660;28;20466;-69
2022/01/02 04:05:28;;;;;;;17.80;14.87;;;12.00;99.90;;;;;;5001033;28;20500;-70
2022/01/02 04:07:56;;;;;;;23.40;16.27;;;12.00;99.90;;;;;;4991436;28;20553;-73
2022/01/02 04:10:23;;;;;;;24.13;18.70;;;12.00;99.90;;;;;;4996616;28;20470;-69
2022/01/02 04:12:50;;;;;;;18.53;16.60;;;12.10;99.90;;;;;;5000845;28;20596;-70
2022/01/02 04:15:17;;;;;;;15.97;14.60;;;12.10;99.90;;;;;;4998937;28;20465;-69
2022/01/02 04:17:44;;;;;;;16.87;14.70;;;12.10;99.90;;;;;;4998181;28;20466;-69
2022/01/02 04:20:15;;;;;;;16.10;14.40;;;12.20;99.90;;;;;;5000963;28;20469;-69
2022/01/02 04:22:43;;;;;;;20.73;15.63;;;12.20;99.90;;;;;;5000892;28;20467;-73
2022/01/02 04:25:11;;;;;;;21.17;19.13;;;12.20;99.90;;;;;;4990733;28;20457;-73
2022/01/02 04:27:38;;;;;;;23.13;20.73;;;12.20;99.90;;;;;;4999646;28;20826;-70
2022/01/02 04:30:10;;;;;;;26.43;23.83;;;12.20;99.90;;;;;;5001303;28;20835;-70
2022/01/02 04:32:37;;;;;;;26.73;24.30;;;12.10;99.90;;;;;;5000203;28;20490;-69
2022/01/02 04:35:04;;;;;;;28.07;25.00;;;12.10;99.90;;;;;;5001105;28;20528;-69
2022/01/02 04:37:32;;;;;;;28.03;25.20;;;12.10;99.90;;;;;;4993849;28;20471;-69
2022/01/02 04:39:59;;;;;;;28.70;26.17;;;12.00;99.90;;;;;;4997794;28;20818;-69
2022/01/02 04:42:26;;;;;;;29.17;26.63;;;12.00;99.90;;;;;;5004571;28;20469;-69
2022/01/02 04:44:53;;;;;;;29.03;26.70;;;12.00;99.90;;;;;;4997022;28;20489;-71
2022/01/02 04:47:20;;;;;;;25.87;24.00;;;11.90;99.90;;;;;;4999639;28;21226;-71
2022/01/02 04:49:46;;;;;;;27.13;25.00;;;11.90;99.90;;;;;;4997442;28;20510;-72
2022/01/02 04:52:13;;;;;;;26.87;24.77;;;11.80;99.90;;;;;;4996101;28;21348;-69
2022/01/02 04:54:41;;;;;;;27.70;25.53;;;11.80;99.90;;;;;;5005057;28;20473;-71
2022/01/02 04:57:08;;;;;;;29.23;26.20;;;11.70;99.90;;;;;;5002737;28;20907;-70
2022/01/02 04:59:37;;;;;;;30.57;27.47;;;11.60;99.90;;;;;;4997056;28;20468;-70
2022/01/02 05:02:04;;;;;;;34.97;28.40;;;11.60;99.90;;;;;;4994239;28;21040;-70
2022/01/02 05:04:31;;;;;;;40.40;28.00;;;11.50;99.90;;;;;;4990206;28;20471;-72
2022/01/02 05:06:58;;;;;;;30.13;27.03;;;11.50;99.90;;;;;;4995985;28;20470;-70
2022/01/02 05:09:25;;;;;;;38.80;29.00;;;11.50;99.90;;;;;;4993919;28;20465;-70
2022/01/02 05:11:53;;;;;;;30.63;27.47;;;11.50;99.90;;;;;;4999791;28;20576;-71
2022/01/02 05:14:20;;;;;;;32.13;28.70;;;11.50;99.90;;;;;;4995388;28;20477;-70
2022/01/02 05:16:47;;;;;;;35.13;27.93;;;11.50;99.90;;;;;;5001594;28;20466;-70
2022/01/02 05:19:14;;;;;;;32.07;28.83;;;11.50;99.90;;;;;;5001455;28;20571;-71
2022/01/02 05:21:41;;;;;;;33.37;29.50;;;11.50;99.90;;;;;;4993455;28;20488;-70
2022/01/02 05:24:08;;;;;;;43.93;29.77;;;11.40;99.90;;;;;;4999297;28;20464;-70
2022/01/02 05:26:35;;;;;;;45.53;29.27;;;11.50;99.90;;;;;;4998301;28;20539;-70
2022/01/02 05:29:04;;;;;;;34.27;30.03;;;11.40;99.90;;;;;;4992815;28;20473;-73
2022/01/02 05:31:31;;;;;;;37.60;29.33;;;11.40;99.90;;;;;;4992506;28;20488;-70
2022/01/02 05:33:58;;;;;;;41.73;29.00;;;11.40;99.90;;;;;;5000213;28;21062;-70
2022/01/02 05:36:25;;;;;;;32.80;29.50;;;11.50;99.90;;;;;;4998186;28;20519;-70
2022/01/02 05:38:52;;;;;;;53.97;30.00;;;11.40;99.90;;;;;;5002063;28;20475;-70
2022/01/02 05:41:19;;;;;;;41.23;31.47;;;11.40;99.90;;;;;;4999668;28;20470;-71
2022/01/02 05:43:46;;;;;;;36.03;29.43;;;11.30;99.90;;;;;;4991407;28;20489;-71
2022/01/02 05:46:14;;;;;;;33.03;29.70;;;11.30;99.90;;;;;;5000108;28;20493;-70
2022/01/02 05:48:41;;;;;;;31.53;28.40;;;11.30;99.90;;;;;;4994533;28;20498;-70
2022/01/02 05:51:08;;;;;;;39.90;28.30;;;11.30;99.90;;;;;;5001378;28;20481;-71
2022/01/02 05:53:35;;;;;;;34.57;29.17;;;11.30;99.90;;;;;;4996694;28;20505;-70
2022/01/02 05:56:02;;;;;;;33.03;27.90;;;11.20;99.90;;;;;;4994469;28;20474;-73
2022/01/02 05:58:30;;;;;;;33.40;29.13;;;11.10;99.90;;;;;;4993723;28;20476;-70
2022/01/02 06:00:57;;;;;;;37.47;28.80;;;11.10;99.90;;;;;;5000147;28;21078;-69
2022/01/02 06:03:25;;;;;;;35.27;28.40;;;11.10;99.90;;;;;;4996152;28;20474;-70
2022/01/02 06:05:52;;;;;;;35.77;28.10;;;11.10;99.90;;;;;;5000079;28;20469;-69
2022/01/02 06:08:19;;;;;;;31.73;28.40;;;11.10;99.90;;;;;;4995580;28;20472;-69
2022/01/02 06:10:45;;;;;;;33.90;28.43;;;11.10;99.90;;;;;;4991701;28;20458;-71
2022/01/02 06:13:12;;;;;;;37.17;28.60;;;11.10;99.90;;;;;;4998580;28;20504;-72
2022/01/02 06:15:39;;;;;;;30.80;28.20;;;11.00;99.90;;;;;;4993121;28;20470;-72
2022/01/02 06:18:06;;;;;;;33.33;29.57;;;11.00;99.90;;;;;;5001698;28;20473;-72
2022/01/02 06:20:34;;;;;;;30.73;27.63;;;11.00;99.90;;;;;;5005232;28;20457;-70
2022/01/02 06:23:01;;;;;;;31.60;28.57;;;11.00;99.90;;;;;;5000559;28;20468;-70
2022/01/02 06:25:28;;;;;;;31.27;28.27;;;11.00;99.90;;;;;;4997599;28;21099;-71
2022/01/02 06:27:55;;;;;;;37.00;28.30;;;10.90;99.90;;;;;;4995961;28;20483;-69
2022/01/02 06:30:22;;;;;;;31.00;27.80;;;10.80;99.90;;;;;;4998984;28;20556;-69
2022/01/02 06:32:54;;;;;;;35.43;27.87;;;10.80;99.90;;;;;;4999774;28;20493;-70
2022/01/02 06:35:22;;;;;;;31.53;28.07;;;10.80;99.90;;;;;;5003781;28;20478;-68
2022/01/02 06:37:51;;;;;;;41.63;27.10;;;10.80;99.90;;;;;;4995735;28;20487;-71
2022/01/02 06:40:18;;;;;;;36.60;26.67;;;10.80;99.90;;;;;;4994436;28;20544;-71
2022/01/02 06:42:46;;;;;;;31.13;27.60;;;10.80;99.90;;;;;;4996736;28;20883;-71
2022/01/02 06:45:13;;;;;;;31.13;26.90;;;10.80;99.90;;;;;;4996281;28;20497;-71
2022/01/02 06:47:40;;;;;;;32.80;27.83;;;10.80;99.90;;;;;;5003158;28;20473;-71
2022/01/02 06:50:08;;;;;;;41.40;27.00;;;10.80;99.90;;;;;;5000223;28;20465;-71
2022/01/02 06:52:35;;;;;;;29.93;27.00;;;10.80;99.90;;;;;;4996796;28;20511;-71
2022/01/02 06:55:04;;;;;;;33.40;27.00;;;10.80;99.90;;;;;;4994228;28;20552;-71
2022/01/02 06:57:31;;;;;;;27.87;25.43;;;10.80;99.90;;;;;;4998276;28;20474;-74
2022/01/02 06:59:58;;;;;;;29.07;26.57;;;10.80;99.90;;;;;;4999531;28;20461;-74
2022/01/02 07:02:25;;;;;;;29.37;26.10;;;10.80;99.90;;;;;;4997985;28;20483;-71
2022/01/02 07:04:52;;;;;;;28.00;25.47;;;10.90;99.90;;;;;;5000938;28;20479;-70
2022/01/02 07:07:19;;;;;;;33.13;26.40;;;10.80;99.90;;;;;;5000489;28;20469;-73
2022/01/02 07:09:45;;;;;;;27.37;25.00;;;10.80;99.90;;;;;;4999756;28;20465;-73
2022/01/02 07:12:14;;;;;;;30.03;26.90;;;10.80;99.90;;;;;;4997629;28;20493;-72
2022/01/02 07:14:40;;;;;;;35.37;27.20;;;10.70;99.90;;;;;;4999029;28;20477;-71
2022/01/02 07:17:07;;;;;;;30.87;25.20;;;10.70;99.90;;;;;;4994991;28;20464;-73
2022/01/02 07:19:34;;;;;;;28.40;25.60;;;10.80;99.90;;;;;;4996620;28;20470;-72
2022/01/02 07:22:01;;;;;;;28.43;26.10;;;10.70;99.90;;;;;;5000326;28;20969;-70
2022/01/02 07:24:28;;;;;;;30.53;27.47;;;10.70;99.90;;;;;;4996175;28;20521;-71
2022/01/02 07:26:55;;;;;;;28.17;25.80;;;10.70;99.90;;;;;;4995984;28;20477;-72
2022/01/02 07:29:23;;;;;;;29.03;26.03;;;10.70;99.90;;;;;;4997728;28;20477;-73
2022/01/02 07:31:50;;;;;;;31.30;28.07;;;10.80;99.90;;;;;;4997987;28;20481;-73
2022/01/02 07:34:17;;;;;;;28.87;26.10;;;10.80;99.90;;;;;;4996636;28;20568;-71
2022/01/02 07:36:45;;;;;;;29.00;25.97;;;10.80;99.90;;;;;;4998984;28;20852;-71
2022/01/02 07:39:13;;;;;;;27.17;24.90;;;10.70;99.90;;;;;;5002931;28;20557;-71
2022/01/02 07:41:40;;;;;;;27.17;24.70;;;10.70;99.90;;;;;;4996700;28;20504;-71
2022/01/02 07:44:07;;;;;;;27.73;24.87;;;10.70;99.90;;;;;;4999073;28;20495;-71
2022/01/02 07:46:35;;;;;;;26.27;23.90;;;10.70;99.90;;;;;;4996606;28;21159;-71
2022/01/02 07:49:02;;;;;;;24.90;22.80;;;10.70;99.90;;;;;;4992186;28;20854;-75
2022/01/02 07:51:29;;;;;;;25.63;23.40;;;10.70;99.90;;;;;;4991070;28;20472;-71
2022/01/02 07:53:56;;;;;;;24.00;22.10;;;10.70;99.90;;;;;;4994673;28;20580;-72
2022/01/02 07:56:24;;;;;;;21.63;20.13;;;10.80;99.90;;;;;;5000444;28;20471;-71
2022/01/02 07:58:51;;;;;;;22.57;20.80;;;10.90;99.90;;;;;;4995265;28;21247;-71
2022/01/02 08:01:19;;;;;;;22.23;20.17;;;10.90;99.90;;;;;;5000245;28;20521;-72
2022/01/02 08:03:48;;;;;;;21.70;19.90;;;10.90;99.90;;;;;;4994743;28;20462;-72
2022/01/02 08:06:15;;;;;;;21.30;19.20;;;11.00;99.90;;;;;;4995954;28;20470;-73
2022/01/02 08:08:42;;;;;;;20.40;18.97;;;11.00;99.90;;;;;;4996948;28;20462;-74
2022/01/02 08:11:09;;;;;;;20.37;19.07;;;11.10;99.90;;;;;;5001843;28;20553;-71
2022/01/02 08:13:36;;;;;;;21.40;20.00;;;11.10;99.90;;;;;;5000054;28;20488;-71
2022/01/02 08:16:03;;;;;;;22.60;20.90;;;11.00;99.90;;;;;;4998541;28;20523;-71
2022/01/02 08:18:30;;;;;;;21.47;19.87;;;11.00;99.90;;;;;;4997252;28;20464;-73
2022/01/02 08:20:58;;;;;;;22.10;20.40;;;11.00;99.90;;;;;;4997733;28;20469;-69
2022/01/02 08:23:25;;;;;;;22.47;20.20;;;11.00;99.90;;;;;;4994966;28;21103;-71
2022/01/02 08:25:52;;;;;;;20.50;19.10;;;11.00;99.90;;;;;;5002237;28;20492;-73
2022/01/02 08:28:19;;;;;;;21.00;19.50;;;11.00;99.90;;;;;;4999837;28;20490;-73
2022/01/02 08:30:47;;;;;;;20.27;19.00;;;11.00;99.90;;;;;;4993792;28;20462;-71
2022/01/02 08:33:14;;;;;;;19.17;17.87;;;11.10;99.90;;;;;;5002599;28;20490;-71
2022/01/02 08:35:41;;;;;;;20.23;18.83;;;11.10;99.90;;;;;;5004502;28;20964;-71
2022/01/02 08:38:09;;;;;;;19.77;18.07;;;11.10;99.90;;;;;;4993532;28;20829;-71
2022/01/02 08:40:36;;;;;;;20.63;18.77;;;11.10;99.90;;;;;;4993861;28;20481;-71
2022/01/02 08:43:03;;;;;;;19.13;17.73;;;11.10;99.90;;;;;;4998292;28;20476;-71
2022/01/02 08:45:30;;;;;;;19.03;17.80;;;11.10;99.90;;;;;;4998158;28;20495;-71
2022/01/02 08:47:57;;;;;;;18.13;16.93;;;11.10;99.90;;;;;;4995657;28;20554;-72
2022/01/02 08:50:24;;;;;;;18.20;16.77;;;11.30;99.90;;;;;;4995005;28;20458;-71
2022/01/02 08:52:51;;;;;;;17.80;16.70;;;11.50;99.90;;;;;;4997421;28;20508;-71
2022/01/02 08:55:19;;;;;;;17.10;16.00;;;11.70;99.90;;;;;;4998338;28;20461;-70
2022/01/02 08:57:46;;;;;;;16.83;15.73;;;11.80;99.90;;;;;;5001099;28;20550;-70
2022/01/02 09:00:13;;;;;;;17.10;15.80;;;11.90;99.90;;;;;;4999845;28;20473;-71
2022/01/02 09:02:40;;;;;;;16.40;15.37;;;12.00;99.90;;;;;;4999570;28;20472;-71
2022/01/02 09:05:08;;;;;;;15.30;14.40;;;12.10;99.90;;;;;;4996113;28;20466;-71
2022/01/02 09:07:36;;;;;;;17.63;16.63;;;12.20;99.90;;;;;;4995940;28;20501;-71
2022/01/02 09:10:04;;;;;;;15.80;14.63;;;12.30;99.90;;;;;;4997280;28;20474;-71
2022/01/02 09:12:32;;;;;;;16.03;14.93;;;12.40;99.90;;;;;;4995822;28;20462;-73
2022/01/02 09:14:59;;;;;;;14.67;13.87;;;12.60;99.90;;;;;;4998145;28;20465;-74
2022/01/02 09:17:26;;;;;;;15.13;14.33;;;12.70;99.90;;;;;;5000338;28;20461;-73
2022/01/02 09:19:53;;;;;;;14.10;13.30;;;12.90;99.90;;;;;;4992770;28;20473;-71
2022/01/02 09:22:20;;;;;;;23.43;13.93;;;13.10;99.90;;;;;;4997188;28;20470;-70
2022/01/02 09:24:46;;;;;;;14.20;13.30;;;13.20;99.90;;;;;;4993550;28;20465;-71
2022/01/02 09:27:13;;;;;;;13.77;12.77;;;13.30;99.90;;;;;;4996710;28;20476;-72
2022/01/02 09:29:41;;;;;;;14.50;13.67;;;13.60;99.90;;;;;;4999030;28;20470;-71
2022/01/02 09:32:09;;;;;;;14.90;14.10;;;13.70;99.90;;;;;;4994465;28;20461;-70
2022/01/02 09:34:35;;;;;;;17.07;15.60;;;13.70;99.90;;;;;;4992727;28;20522;-70
2022/01/02 09:37:04;;;;;;;15.33;14.20;;;13.60;99.90;;;;;;4993421;28;20550;-70
2022/01/02 09:39:31;;;;;;;14.43;13.60;;;13.50;99.90;;;;;;5000497;28;20461;-71
2022/01/02 09:41:58;;;;;;;15.17;14.10;;;13.60;99.90;;;;;;4993404;28;20540;-71
2022/01/02 09:44:25;;;;;;;15.37;14.47;;;13.60;99.90;;;;;;4998917;28;20472;-71
2022/01/02 09:46:54;;;;;;;15.17;14.07;;;13.70;99.90;;;;;;5001923;28;20469;-71
2022/01/02 09:49:22;;;;;;;19.37;17.70;;;13.70;99.90;;;;;;4992867;28;20466;-70
2022/01/02 09:51:49;;;;;;;25.60;23.80;;;13.60;99.90;;;;;;4991857;28;20466;-70
2022/01/02 09:54:16;;;;;;;28.03;25.63;;;13.30;99.90;;;;;;4998085;28;20499;-72
2022/01/02 09:56:43;;;;;;;25.53;23.53;;;13.00;99.90;;;;;;5003279;28;20553;-70
2022/01/02 09:59:10;;;;;;;23.30;21.80;;;12.90;99.90;;;;;;4999053;28;21183;-70
2022/01/02 10:01:37;;;;;;;21.87;20.47;;;12.80;99.90;;;;;;4997642;28;20553;-72
2022/01/02 10:04:05;;;;;;;20.17;19.07;;;12.80;99.90;;;;;;4998741;28;20465;-72
2022/01/02 10:06:40;;;;;;;17.87;16.77;;;12.80;99.90;;;;;;5003818;28;20473;-70
2022/01/02 10:09:14;;;;;;;16.60;15.60;;;12.90;99.90;;;;;;4998460;28;20461;-72
2022/01/02 10:11:41;;;;;;;17.33;15.87;;;12.90;99.90;;;;;;5001930;28;20461;-72
2022/01/02 10:14:11;;;;;;;15.17;14.17;;;13.10;99.90;;;;;;5004636;28;20485;-70
2022/01/02 10:16:39;;;;;;;16.10;14.97;;;13.30;99.90;;;;;;5005691;28;20548;-72
2022/01/02 10:19:21;;;;;;;15.20;14.20;;;13.50;99.90;;;;;;4990798;28;20472;-72
2022/01/02 10:21:56;;;;;;;16.33;15.13;;;13.60;99.90;;;;;;4994030;28;20580;-71
2022/01/02 10:24:27;;;;;;;14.90;13.90;;;13.60;99.90;;;;;;4997173;28;20911;-71
2022/01/02 10:27:22;;;;;;;16.47;15.13;;;13.70;99.90;;;;;;4994705;28;20471;-71
2022/01/02 10:29:51;;;;;;;18.23;16.30;;;13.70;99.90;;;;;;4968158;28;20513;-71
2022/01/02 10:32:26;;;;;;;15.97;14.87;;;13.60;99.90;;;;;;5001097;28;20516;-71
2022/01/02 10:35:08;;;;;;;17.33;15.70;;;13.50;99.90;;;;;;4998488;28;20500;-73
2022/01/02 10:37:35;;;;;;;16.90;15.70;;;13.40;99.90;;;;;;4995798;28;20469;-71
2022/01/02 10:40:02;;;;;;;16.70;15.60;;;13.40;99.90;;;;;;4997104;28;21059;-73
2022/01/02 10:42:28;;;;;;;16.73;15.53;;;13.50;99.90;;;;;;4998057;28;20459;-72
2022/01/02 10:44:55;;;;;;;17.70;16.23;;;13.40;99.90;;;;;;4989190;28;20497;-71
2022/01/02 10:47:24;;;;;;;16.07;14.97;;;13.40;99.90;;;;;;4993390;28;20824;-71
2022/01/02 10:49:55;;;;;;;16.00;14.77;;;13.30;99.90;;;;;;4998324;28;20536;-71
2022/01/02 10:52:24;;;;;;;16.90;15.50;;;13.40;99.90;;;;;;4992737;28;20937;-73
2022/01/02 10:54:52;;;;;;;17.10;15.97;;;13.40;99.90;;;;;;4992534;28;20506;-72
2022/01/02 10:57:20;;;;;;;15.70;14.60;;;13.50;99.90;;;;;;4994964;28;20461;-74
2022/01/02 10:59:47;;;;;;;16.83;15.73;;;13.60;99.90;;;;;;4993345;28;20461;-71
2022/01/02 11:02:15;;;;;;;15.20;14.30;;;13.60;99.90;;;;;;4993241;28;20471;-71
2022/01/02 11:04:46;;;;;;;16.77;15.27;;;13.70;99.90;;;;;;4998543;28;20496;-74
2022/01/02 11:07:21;;;;;;;15.80;14.50;;;13.90;99.90;;;;;;5000137;28;20497;-71
2022/01/02 11:09:49;;;;;;;16.47;15.17;;;13.80;99.90;;;;;;4997150;28;20465;-71
2022/01/02 11:12:17;;;;;;;17.13;15.80;;;13.80;99.90;;;;;;5001019;28;20462;-74
2022/01/02 11:14:44;;;;;;;15.77;14.80;;;13.80;99.90;;;;;;4995094;28;20490;-70
2022/01/02 11:17:12;;;;;;;16.23;15.10;;;13.70;99.90;;;;;;5005700;28;20474;-71
2022/01/02 11:19:39;;;;;;;15.43;14.53;;;13.70;99.90;;;;;;4991949;28;20457;-74
2022/01/02 11:22:11;;;;;;;17.00;15.67;;;13.60;99.90;;;;;;4992354;28;20462;-71
2022/01/02 11:24:47;;;;;;;16.10;14.90;;;13.60;99.90;;;;;;4995028;28;20457;-70
2022/01/02 11:27:20;;;;;;;17.07;15.77;;;13.70;99.90;;;;;;4990233;28;20970;-70
2022/01/02 11:29:47;;;;;;;16.57;15.10;;;13.60;99.90;;;;;;4996196;28;20462;-71
2022/01/02 11:32:22;;;;;;;16.07;14.70;;;13.60;99.90;;;;;;4995665;28;20474;-71
2022/01/02 11:34:49;;;;;;;15.10;14.20;;;13.60;99.90;;;;;;4997271;28;20700;-71
2022/01/02 11:37:24;;;;;;;16.67;15.27;;;13.80;99.90;;;;;;4997900;28;20992;-71
2022/01/02 11:39:55;;;;;;;16.00;15.00;;;13.70;99.90;;;;;;4986296;28;20473;-72
2022/01/02 11:42:45;;;;;;;16.63;15.43;;;13.80;99.90;;;;;;4994798;28;20588;-71
2022/01/02 11:45:39;;;;;;;15.17;14.17;;;13.70;99.90;;;;;;4998778;28;20559;-69
2022/01/02 11:48:29;;;;;;;15.27;14.20;;;13.60;99.90;;;;;;4996852;28;20972;-71
2022/01/02 11:50:56;;;;;;;16.30;15.10;;;13.70;99.90;;;;;;4989954;28;20466;-71
2022/01/02 11:53:25;;;;;;;16.27;15.03;;;13.50;99.90;;;;;;4994210;28;20481;-73
2022/01/02 11:55:55;;;;;;;16.70;15.13;;;13.50;99.90;;;;;;4997427;28;20470;-71
2022/01/02 11:58:49;;;;;;;15.73;14.73;;;13.60;99.90;;;;;;5001449;28;20463;-73
2022/01/02 12:01:48;;;;;;;16.03;14.93;;;13.50;99.90;;;;;;5009285;28;20468;-71
2022/01/02 12:04:16;;;;;;;15.60;14.40;;;13.50;99.90;;;;;;4991305;28;20501;-71
2022/01/02 12:06:45;;;;;;;15.40;14.37;;;13.60;99.90;;;;;;4994807;28;20505;-70
2022/01/02 12:09:35;;;;;;;16.47;15.27;;;13.50;99.90;;;;;;4989257;28;20473;-71
2022/01/02 12:12:06;;;;;;;16.00;15.00;;;13.60;99.90;;;;;;4991473;28;20866;-71
2022/01/02 12:14:51;;;;;;;17.03;15.67;;;13.60;99.90;;;;;;4998950;28;20493;-70
2022/01/02 12:17:23;;;;;;;16.13;14.60;;;13.60;99.90;;;;;;5001208;28;21227;-71
2022/01/02 12:19:59;;;;;;;16.93;15.63;;;13.70;99.90;;;;;;4997760;28;20466;-71
2022/01/02 12:22:40;;;;;;;15.90;14.70;;;13.60;99.90;;;;;;4996603;28;20743;-70
2022/01/02 12:25:21;;;;;;;15.80;14.77;;;13.60;99.90;;;;;;4990777;28;20470;-71
2022/01/02 12:27:52;;;;;;;15.27;14.47;;;13.60;99.90;;;;;;4989921;28;20457;-72
2022/01/02 12:30:20;;;;;;;16.07;15.00;;;13.50;99.90;;;;;;4993910;28;20728;-71
2022/01/02 12:32:48;;;;;;;15.73;14.20;;;13.60;99.90;;;;;;4999750;28;20952;-71
2022/01/02 12:35:16;;;;;;;16.03;14.40;;;13.50;99.90;;;;;;4998139;28;20497;-70
2022/01/02 12:37:43;;;;;;;15.73;14.40;;;13.50;99.90;;;;;;4994740;28;20592;-70
2022/01/02 12:40:17;;;;;;;15.00;13.80;;;13.50;99.90;;;;;;4993181;28;20476;-70